sensor_id;sensor_type;location;lat;lon;timestamp;temperature;humidity
12771;DHT22;6449;47.666;9.160;2022-07-29T09:06:44;21.40;99.90
12771;DHT22;6449;47.666;9.160;2022-07-29T09:32:14;20.90;99.90
12771;DHT22;6449;47.666;9.160;2022-07-29T11:56:52;24.40;99.90
12771;DHT22;6449;47.666;9.160;2022-07-29T12:12:11;24.10;99.90
12771;DHT22;6449;47.666;9.160;2022-07-29T12:17:33;24.00;99.90
12771;DHT22;6449;47.666;9.160;2022-07-29T12:49:21;23.80;99.90
12771;DHT22;6449;47.666;9.160;2022-07-29T12:54:28;23.90;99.90
12771;DHT22;6449;47.666;9.160;2022-07-29T12:59:24;23.90;99.90
12771;DHT22;6449;47.666;9.160;2022-07-29T13:04:27;23.90;99.90
12771;DHT22;6449;47.666;9.160;2022-07-29T13:09:41;24.00;99.90
12771;DHT22;6449;47.666;9.160;2022-07-29T13:15:18;24.00;99.90
12771;DHT22;6449;47.666;9.160;2022-07-29T13:25:24;23.90;99.90
12771;DHT22;6449;47.666;9.160;2022-07-29T13:36:45;23.70;99.90
12771;DHT22;6449;47.666;9.160;2022-07-29T13:41:39;23.70;99.90
12771;DHT22;6449;47.666;9.160;2022-07-29T13:51:52;23.80;99.90
12771;DHT22;6449;47.666;9.160;2022-07-29T13:57:28;23.90;99.90
12771;DHT22;6449;47.666;9.160;2022-07-29T14:02:30;24.00;99.90
12771;DHT22;6449;47.666;9.160;2022-07-29T14:07:56;24.10;99.90
12771;DHT22;6449;47.666;9.160;2022-07-29T14:12:52;24.10;99.90
12771;DHT22;6449;47.666;9.160;2022-07-29T14:17:45;24.00;99.90
12771;DHT22;6449;47.666;9.160;2022-07-29T14:22:41;23.80;99.90
12771;DHT22;6449;47.666;9.160;2022-07-29T14:27:39;23.50;99.90
12771;DHT22;6449;47.666;9.160;2022-07-29T14:32:32;23.30;99.90
12771;DHT22;6449;47.666;9.160;2022-07-29T14:37:26;22.90;99.90
12771;DHT22;6449;47.666;9.160;2022-07-29T14:42:31;22.60;99.90
12771;DHT22;6449;47.666;9.160;2022-07-29T14:47:26;22.10;99.90
12771;DHT22;6449;47.666;9.160;2022-07-29T14:52:20;21.90;99.90
12771;DHT22;6449;47.666;9.160;2022-07-29T14:57:13;21.80;99.90
12771;DHT22;6449;47.666;9.160;2022-07-29T15:02:11;21.70;99.90
12771;DHT22;6449;47.666;9.160;2022-07-29T15:07:23;21.50;99.90
12771;DHT22;6449;47.666;9.160;2022-07-29T15:12:31;21.20;99.90
12771;DHT22;6449;47.666;9.160;2022-07-29T15:17:47;21.20;99.90
12771;DHT22;6449;47.666;9.160;2022-07-29T15:22:52;20.90;99.90
12771;DHT22;6449;47.666;9.160;2022-07-29T15:28:01;20.90;99.90
12771;DHT22;6449;47.666;9.160;2022-07-29T15:38:17;20.70;99.90
12771;DHT22;6449;47.666;9.160;2022-07-29T15:43:19;20.70;99.90
12771;DHT22;6449;47.666;9.160;2022-07-29T15:53:32;20.50;99.90
12771;DHT22;6449;47.666;9.160;2022-07-29T15:58:33;20.50;99.90
12771;DHT22;6449;47.666;9.160;2022-07-29T16:03:41;20.50;99.90
12771;DHT22;6449;47.666;9.160;2022-07-29T16:08:40;20.30;99.90
12771;DHT22;6449;47.666;9.160;2022-07-29T16:13:34;20.30;99.90
12771;DHT22;6449;47.666;9.160;2022-07-29T16:18:29;20.40;99.90
12771;DHT22;6449;47.666;9.160;2022-07-29T16:23:22;20.40;99.90
12771;DHT22;6449;47.666;9.160;2022-07-29T16:33:57;20.30;99.90
12771;DHT22;6449;47.666;9.160;2022-07-29T16:38:57;20.30;99.90
12771;DHT22;6449;47.666;9.160;2022-07-29T16:44:03;20.30;99.90
12771;DHT22;6449;47.666;9.160;2022-07-29T16:54:26;20.20;99.90
12771;DHT22;6449;47.666;9.160;2022-07-29T16:59:25;19.90;99.90
12771;DHT22;6449;47.666;9.160;2022-07-29T17:09:55;20.00;99.90
12771;DHT22;6449;47.666;9.160;2022-07-29T17:15:01;19.90;99.90
12771;DHT22;6449;47.666;9.160;2022-07-29T17:20:10;19.90;99.90
12771;DHT22;6449;47.666;9.160;2022-07-29T17:25:44;19.80;99.90
12771;DHT22;6449;47.666;9.160;2022-07-29T17:36:01;19.90;99.90
12771;DHT22;6449;47.666;9.160;2022-07-29T17:41:24;19.90;99.90
12771;DHT22;6449;47.666;9.160;2022-07-29T17:56:50;19.70;99.90
12771;DHT22;6449;47.666;9.160;2022-07-29T18:01:44;19.50;99.90
12771;DHT22;6449;47.666;9.160;2022-07-29T18:06:41;19.50;99.90
12771;DHT22;6449;47.666;9.160;2022-07-29T18:11:40;19.50;99.90
12771;DHT22;6449;47.666;9.160;2022-07-29T18:42:30;20.00;99.90
12771;DHT22;6449;47.666;9.160;2022-07-29T18:47:23;19.90;99.90
12771;DHT22;6449;47.666;9.160;2022-07-29T19:07:45;19.60;99.90
12771;DHT22;6449;47.666;9.160;2022-07-29T19:12:39;19.50;99.90
12771;DHT22;6449;47.666;9.160;2022-07-29T19:17:33;19.40;99.90
12771;DHT22;6449;47.666;9.160;2022-07-29T19:48:20;19.00;99.90
12771;DHT22;6449;47.666;9.160;2022-07-29T19:53:13;19.00;99.90
12771;DHT22;6449;47.666;9.160;2022-07-29T20:08:29;18.80;99.90
12771;DHT22;6449;47.666;9.160;2022-07-29T20:13:23;19.10;99.90
12771;DHT22;6449;47.666;9.160;2022-07-29T20:18:17;19.30;99.90
12771;DHT22;6449;47.666;9.160;2022-07-29T20:23:10;19.00;99.90
12771;DHT22;6449;47.666;9.160;2022-07-29T20:28:05;18.70;99.90
12771;DHT22;6449;47.666;9.160;2022-07-29T20:32:58;18.40;99.90
12771;DHT22;6449;47.666;9.160;2022-07-29T20:37:52;18.50;99.90
12771;DHT22;6449;47.666;9.160;2022-07-29T20:42:47;18.70;99.90
12771;DHT22;6449;47.666;9.160;2022-07-29T20:47:42;18.70;99.90
12771;DHT22;6449;47.666;9.160;2022-07-29T20:57:45;18.50;99.90
12771;DHT22;6449;47.666;9.160;2022-07-29T21:02:39;18.50;99.90
12771;DHT22;6449;47.666;9.160;2022-07-29T21:07:40;18.00;99.90
12771;DHT22;6449;47.666;9.160;2022-07-29T21:43:30;17.60;99.90
12771;DHT22;6449;47.666;9.160;2022-07-29T21:48:25;17.40;99.90
12771;DHT22;6449;47.666;9.160;2022-07-29T21:53:22;17.50;99.90
12771;DHT22;6449;47.666;9.160;2022-07-29T22:03:29;17.70;99.90
12771;DHT22;6449;47.666;9.160;2022-07-29T22:08:22;17.60;99.90
12771;DHT22;6449;47.666;9.160;2022-07-29T22:23:38;17.20;99.90
12771;DHT22;6449;47.666;9.160;2022-07-29T22:28:32;17.10;99.90
12771;DHT22;6449;47.666;9.160;2022-07-29T22:33:25;17.30;99.90
12771;DHT22;6449;47.666;9.160;2022-07-29T22:38:19;17.40;99.90
12771;DHT22;6449;47.666;9.160;2022-07-29T22:43:14;17.50;99.90
12771;DHT22;6449;47.666;9.160;2022-07-29T22:48:08;17.50;99.90
12771;DHT22;6449;47.666;9.160;2022-07-29T22:53:02;17.30;99.90
12771;DHT22;6449;47.666;9.160;2022-07-29T22:57:55;17.20;99.90
12771;DHT22;6449;47.666;9.160;2022-07-29T23:08:00;17.20;99.90
12771;DHT22;6449;47.666;9.160;2022-07-29T23:12:54;17.20;99.90
12771;DHT22;6449;47.666;9.160;2022-07-29T23:23:00;17.00;99.90
12771;DHT22;6449;47.666;9.160;2022-07-29T23:27:53;16.90;99.90
12771;DHT22;6449;47.666;9.160;2022-07-29T23:32:47;17.00;99.90
12771;DHT22;6449;47.666;9.160;2022-07-29T23:42:52;17.20;99.90
12771;DHT22;6449;47.666;9.160;2022-07-29T23:47:46;17.30;99.90
12771;DHT22;6449;47.666;9.160;2022-07-29T23:52:39;17.40;99.90
12771;DHT22;6449;47.666;9.160;2022-07-29T23:57:33;17.40;99.90
